sensor_id;sensor_type;location;lat;lon;timestamp;temperature;humidity
11934;DHT22;6026;48.784;9.198;2023-07-31T00:01:59;16.30;99.90
11934;DHT22;6026;48.784;9.198;2023-07-31T00:04:25;16.30;99.90
11934;DHT22;6026;48.784;9.198;2023-07-31T00:06:50;16.30;99.90
11934;DHT22;6026;48.784;9.198;2023-07-31T00:09:16;16.20;99.90
11934;DHT22;6026;48.784;9.198;2023-07-31T00:11:41;16.20;99.90
11934;DHT22;6026;48.784;9.198;2023-07-31T00:14:07;16.20;99.90
11934;DHT22;6026;48.784;9.198;2023-07-31T00:16:33;16.20;99.90
11934;DHT22;6026;48.784;9.198;2023-07-31T00:18:58;16.20;99.90
11934;DHT22;6026;48.784;9.198;2023-07-31T00:21:24;16.20;99.90
11934;DHT22;6026;48.784;9.198;2023-07-31T00:23:49;16.20;99.90
11934;DHT22;6026;48.784;9.198;2023-07-31T00:26:15;16.10;99.90
11934;DHT22;6026;48.784;9.198;2023-07-31T00:28:41;16.10;99.90
11934;DHT22;6026;48.784;9.198;2023-07-31T00:31:06;16.00;99.90
11934;DHT22;6026;48.784;9.198;2023-07-31T00:33:34;15.80;99.90
11934;DHT22;6026;48.784;9.198;2023-07-31T00:35:59;15.90;99.90
11934;DHT22;6026;48.784;9.198;2023-07-31T00:38:25;15.90;99.90
11934;DHT22;6026;48.784;9.198;2023-07-31T00:40:51;16.00;99.90
11934;DHT22;6026;48.784;9.198;2023-07-31T00:43:16;15.90;99.90
11934;DHT22;6026;48.784;9.198;2023-07-31T00:45:42;16.00;99.90
11934;DHT22;6026;48.784;9.198;2023-07-31T00:48:07;15.90;99.90
11934;DHT22;6026;48.784;9.198;2023-07-31T00:50:33;15.90;99.90
11934;DHT22;6026;48.784;9.198;2023-07-31T00:53:00;15.80;99.90
11934;DHT22;6026;48.784;9.198;2023-07-31T00:55:25;15.90;99.90
11934;DHT22;6026;48.784;9.198;2023-07-31T00:57:52;15.90;99.90
11934;DHT22;6026;48.784;9.198;2023-07-31T01:00:18;15.80;99.90
11934;DHT22;6026;48.784;9.198;2023-07-31T01:02:44;15.80;99.90
11934;DHT22;6026;48.784;9.198;2023-07-31T01:05:10;15.80;99.90
11934;DHT22;6026;48.784;9.198;2023-07-31T01:07:50;15.80;99.90
11934;DHT22;6026;48.784;9.198;2023-07-31T01:10:22;15.80;99.90
11934;DHT22;6026;48.784;9.198;2023-07-31T01:12:50;15.70;99.90
11934;DHT22;6026;48.784;9.198;2023-07-31T01:15:16;15.70;99.90
11934;DHT22;6026;48.784;9.198;2023-07-31T01:17:43;15.70;99.90
11934;DHT22;6026;48.784;9.198;2023-07-31T01:20:12;15.70;99.90
11934;DHT22;6026;48.784;9.198;2023-07-31T01:28:13;15.60;99.90
11934;DHT22;6026;48.784;9.198;2023-07-31T01:30:45;15.50;99.90
11934;DHT22;6026;48.784;9.198;2023-07-31T01:33:15;15.60;99.90
11934;DHT22;6026;48.784;9.198;2023-07-31T01:35:44;15.50;99.90
11934;DHT22;6026;48.784;9.198;2023-07-31T01:38:10;15.50;99.90
11934;DHT22;6026;48.784;9.198;2023-07-31T01:40:35;15.50;99.90
11934;DHT22;6026;48.784;9.198;2023-07-31T01:43:01;15.50;99.90
11934;DHT22;6026;48.784;9.198;2023-07-31T01:45:27;15.40;99.90
11934;DHT22;6026;48.784;9.198;2023-07-31T01:47:52;15.40;99.90
11934;DHT22;6026;48.784;9.198;2023-07-31T01:50:18;15.50;99.90
11934;DHT22;6026;48.784;9.198;2023-07-31T01:52:43;15.50;99.90
11934;DHT22;6026;48.784;9.198;2023-07-31T01:55:09;15.50;99.90
11934;DHT22;6026;48.784;9.198;2023-07-31T01:57:36;15.50;99.90
11934;DHT22;6026;48.784;9.198;2023-07-31T02:00:02;15.50;99.90
11934;DHT22;6026;48.784;9.198;2023-07-31T02:02:28;15.50;99.90
11934;DHT22;6026;48.784;9.198;2023-07-31T02:04:53;15.50;99.90
11934;DHT22;6026;48.784;9.198;2023-07-31T02:07:19;15.50;99.90
11934;DHT22;6026;48.784;9.198;2023-07-31T02:09:44;15.50;99.90
11934;DHT22;6026;48.784;9.198;2023-07-31T02:12:12;15.50;99.90
11934;DHT22;6026;48.784;9.198;2023-07-31T02:14:39;15.50;99.90
11934;DHT22;6026;48.784;9.198;2023-07-31T02:17:05;15.40;99.90
11934;DHT22;6026;48.784;9.198;2023-07-31T02:19:31;15.40;99.90
11934;DHT22;6026;48.784;9.198;2023-07-31T02:21:57;15.40;99.90
11934;DHT22;6026;48.784;9.198;2023-07-31T02:24:23;15.40;99.90
11934;DHT22;6026;48.784;9.198;2023-07-31T02:26:48;15.40;99.90
11934;DHT22;6026;48.784;9.198;2023-07-31T02:29:14;15.40;99.90
11934;DHT22;6026;48.784;9.198;2023-07-31T02:31:39;15.40;99.90
11934;DHT22;6026;48.784;9.198;2023-07-31T02:34:05;15.40;99.90
11934;DHT22;6026;48.784;9.198;2023-07-31T02:36:30;15.50;99.90
11934;DHT22;6026;48.784;9.198;2023-07-31T02:38:56;15.50;99.90
11934;DHT22;6026;48.784;9.198;2023-07-31T02:41:21;15.50;99.90
11934;DHT22;6026;48.784;9.198;2023-07-31T02:43:47;15.50;99.90
11934;DHT22;6026;48.784;9.198;2023-07-31T02:46:12;15.50;99.90
11934;DHT22;6026;48.784;9.198;2023-07-31T02:48:38;15.50;99.90
11934;DHT22;6026;48.784;9.198;2023-07-31T02:51:03;15.40;99.90
11934;DHT22;6026;48.784;9.198;2023-07-31T02:53:29;15.40;99.90
11934;DHT22;6026;48.784;9.198;2023-07-31T02:55:54;15.40;99.90
11934;DHT22;6026;48.784;9.198;2023-07-31T02:58:20;15.40;99.90
11934;DHT22;6026;48.784;9.198;2023-07-31T03:00:45;15.40;99.90
11934;DHT22;6026;48.784;9.198;2023-07-31T03:03:11;15.40;99.90
11934;DHT22;6026;48.784;9.198;2023-07-31T03:05:37;15.40;99.90
11934;DHT22;6026;48.784;9.198;2023-07-31T03:08:03;15.40;99.90
11934;DHT22;6026;48.784;9.198;2023-07-31T03:10:29;15.30;99.90
11934;DHT22;6026;48.784;9.198;2023-07-31T03:12:54;15.30;99.90
11934;DHT22;6026;48.784;9.198;2023-07-31T03:15:20;15.30;99.90
11934;DHT22;6026;48.784;9.198;2023-07-31T03:17:45;15.30;99.90
11934;DHT22;6026;48.784;9.198;2023-07-31T03:20:11;15.30;99.90
11934;DHT22;6026;48.784;9.198;2023-07-31T03:22:37;15.30;99.90
11934;DHT22;6026;48.784;9.198;2023-07-31T03:25:03;15.30;99.90
11934;DHT22;6026;48.784;9.198;2023-07-31T03:27:29;15.30;99.90
11934;DHT22;6026;48.784;9.198;2023-07-31T03:29:54;15.30;99.90
11934;DHT22;6026;48.784;9.198;2023-07-31T03:32:20;15.30;99.90
11934;DHT22;6026;48.784;9.198;2023-07-31T03:34:45;15.30;99.90
11934;DHT22;6026;48.784;9.198;2023-07-31T03:37:11;15.30;99.90
11934;DHT22;6026;48.784;9.198;2023-07-31T03:39:37;15.30;99.90
11934;DHT22;6026;48.784;9.198;2023-07-31T03:42:02;15.20;99.90
11934;DHT22;6026;48.784;9.198;2023-07-31T03:44:28;15.20;99.90
11934;DHT22;6026;48.784;9.198;2023-07-31T03:46:53;15.20;99.90
11934;DHT22;6026;48.784;9.198;2023-07-31T03:49:19;15.20;99.90
11934;DHT22;6026;48.784;9.198;2023-07-31T03:51:45;15.10;99.90
11934;DHT22;6026;48.784;9.198;2023-07-31T03:54:10;15.00;99.90
11934;DHT22;6026;48.784;9.198;2023-07-31T03:56:36;15.10;99.90
11934;DHT22;6026;48.784;9.198;2023-07-31T03:59:03;15.10;99.90
11934;DHT22;6026;48.784;9.198;2023-07-31T04:01:29;15.10;99.90
11934;DHT22;6026;48.784;9.198;2023-07-31T04:03:54;15.10;99.90
11934;DHT22;6026;48.784;9.198;2023-07-31T04:06:20;15.10;99.90
11934;DHT22;6026;48.784;9.198;2023-07-31T04:08:45;15.10;99.90
11934;DHT22;6026;48.784;9.198;2023-07-31T04:11:11;15.20;99.90
11934;DHT22;6026;48.784;9.198;2023-07-31T04:13:38;15.20;99.90
11934;DHT22;6026;48.784;9.198;2023-07-31T04:16:04;15.20;99.90
11934;DHT22;6026;48.784;9.198;2023-07-31T04:18:29;15.30;99.90
11934;DHT22;6026;48.784;9.198;2023-07-31T04:20:57;15.30;99.90
11934;DHT22;6026;48.784;9.198;2023-07-31T04:23:26;15.40;99.90
11934;DHT22;6026;48.784;9.198;2023-07-31T04:25:52;15.50;99.90
11934;DHT22;6026;48.784;9.198;2023-07-31T04:28:18;15.50;99.90
11934;DHT22;6026;48.784;9.198;2023-07-31T04:30:43;15.50;99.90
11934;DHT22;6026;48.784;9.198;2023-07-31T04:33:09;15.50;99.90
11934;DHT22;6026;48.784;9.198;2023-07-31T04:35:34;15.60;99.90
11934;DHT22;6026;48.784;9.198;2023-07-31T04:38:00;15.60;99.90
11934;DHT22;6026;48.784;9.198;2023-07-31T04:40:26;15.60;99.90
11934;DHT22;6026;48.784;9.198;2023-07-31T04:42:51;15.70;99.90
11934;DHT22;6026;48.784;9.198;2023-07-31T04:45:17;15.80;99.90
11934;DHT22;6026;48.784;9.198;2023-07-31T04:47:43;15.80;99.90
11934;DHT22;6026;48.784;9.198;2023-07-31T04:50:08;15.80;99.90
11934;DHT22;6026;48.784;9.198;2023-07-31T04:52:34;15.90;99.90
11934;DHT22;6026;48.784;9.198;2023-07-31T04:55:00;16.00;99.90
11934;DHT22;6026;48.784;9.198;2023-07-31T04:57:25;16.00;99.90
11934;DHT22;6026;48.784;9.198;2023-07-31T04:59:51;16.10;99.90
11934;DHT22;6026;48.784;9.198;2023-07-31T05:02:16;16.20;99.90
11934;DHT22;6026;48.784;9.198;2023-07-31T05:04:42;16.20;99.90
11934;DHT22;6026;48.784;9.198;2023-07-31T05:07:07;16.30;99.90
11934;DHT22;6026;48.784;9.198;2023-07-31T05:09:33;16.30;99.90
11934;DHT22;6026;48.784;9.198;2023-07-31T05:11:58;16.40;99.90
11934;DHT22;6026;48.784;9.198;2023-07-31T05:14:25;16.40;99.90
11934;DHT22;6026;48.784;9.198;2023-07-31T05:16:51;16.40;99.90
11934;DHT22;6026;48.784;9.198;2023-07-31T05:19:16;16.50;99.90
11934;DHT22;6026;48.784;9.198;2023-07-31T05:21:42;16.60;99.90
11934;DHT22;6026;48.784;9.198;2023-07-31T05:24:07;16.60;99.90
11934;DHT22;6026;48.784;9.198;2023-07-31T05:26:33;16.70;99.90
11934;DHT22;6026;48.784;9.198;2023-07-31T05:28:58;16.70;99.90
11934;DHT22;6026;48.784;9.198;2023-07-31T05:31:24;16.80;99.90
11934;DHT22;6026;48.784;9.198;2023-07-31T05:33:50;16.80;99.90
11934;DHT22;6026;48.784;9.198;2023-07-31T05:36:16;16.90;99.90
11934;DHT22;6026;48.784;9.198;2023-07-31T05:38:43;17.00;99.90
11934;DHT22;6026;48.784;9.198;2023-07-31T05:41:12;17.00;99.90
11934;DHT22;6026;48.784;9.198;2023-07-31T05:43:38;17.10;99.90
11934;DHT22;6026;48.784;9.198;2023-07-31T05:46:03;17.20;99.90
11934;DHT22;6026;48.784;9.198;2023-07-31T05:48:29;17.30;99.90
11934;DHT22;6026;48.784;9.198;2023-07-31T05:50:55;17.40;99.90
11934;DHT22;6026;48.784;9.198;2023-07-31T05:53:20;17.50;99.90
11934;DHT22;6026;48.784;9.198;2023-07-31T05:55:46;17.60;99.90
11934;DHT22;6026;48.784;9.198;2023-07-31T05:58:11;17.80;99.90
11934;DHT22;6026;48.784;9.198;2023-07-31T06:00:37;17.90;99.90
11934;DHT22;6026;48.784;9.198;2023-07-31T06:03:02;18.00;99.90
11934;DHT22;6026;48.784;9.198;2023-07-31T06:05:28;18.10;99.90
11934;DHT22;6026;48.784;9.198;2023-07-31T06:07:55;18.20;99.90
11934;DHT22;6026;48.784;9.198;2023-07-31T06:10:21;18.30;99.90
11934;DHT22;6026;48.784;9.198;2023-07-31T06:12:47;18.40;99.90
11934;DHT22;6026;48.784;9.198;2023-07-31T06:15:12;18.70;99.90
11934;DHT22;6026;48.784;9.198;2023-07-31T06:17:38;18.80;99.90
11934;DHT22;6026;48.784;9.198;2023-07-31T06:20:04;19.20;99.90
11934;DHT22;6026;48.784;9.198;2023-07-31T06:22:32;19.90;99.90
11934;DHT22;6026;48.784;9.198;2023-07-31T06:24:58;20.80;99.90
11934;DHT22;6026;48.784;9.198;2023-07-31T06:27:24;21.70;99.90
11934;DHT22;6026;48.784;9.198;2023-07-31T06:29:49;22.40;99.90
11934;DHT22;6026;48.784;9.198;2023-07-31T06:32:15;23.30;99.90
11934;DHT22;6026;48.784;9.198;2023-07-31T06:34:40;23.80;99.90
11934;DHT22;6026;48.784;9.198;2023-07-31T06:37:06;23.60;99.90
11934;DHT22;6026;48.784;9.198;2023-07-31T06:39:31;24.30;99.90
11934;DHT22;6026;48.784;9.198;2023-07-31T06:41:57;24.50;99.90
11934;DHT22;6026;48.784;9.198;2023-07-31T06:44:22;24.50;99.90
11934;DHT22;6026;48.784;9.198;2023-07-31T06:46:48;23.80;99.90
11934;DHT22;6026;48.784;9.198;2023-07-31T06:49:13;24.30;99.90
11934;DHT22;6026;48.784;9.198;2023-07-31T06:51:41;25.10;99.90
11934;DHT22;6026;48.784;9.198;2023-07-31T06:54:07;25.30;99.90
11934;DHT22;6026;48.784;9.198;2023-07-31T06:56:33;25.20;99.90
11934;DHT22;6026;48.784;9.198;2023-07-31T06:58:59;25.30;99.90
11934;DHT22;6026;48.784;9.198;2023-07-31T07:01:24;25.20;99.90
11934;DHT22;6026;48.784;9.198;2023-07-31T07:03:50;25.40;99.90
11934;DHT22;6026;48.784;9.198;2023-07-31T07:06:18;25.80;99.90
11934;DHT22;6026;48.784;9.198;2023-07-31T07:08:44;26.00;99.90
11934;DHT22;6026;48.784;9.198;2023-07-31T07:11:10;25.70;99.90
11934;DHT22;6026;48.784;9.198;2023-07-31T07:13:35;25.10;99.90
11934;DHT22;6026;48.784;9.198;2023-07-31T07:16:01;24.70;99.90
11934;DHT22;6026;48.784;9.198;2023-07-31T07:18:26;24.50;99.90
11934;DHT22;6026;48.784;9.198;2023-07-31T07:20:53;24.80;99.90
11934;DHT22;6026;48.784;9.198;2023-07-31T07:23:20;24.90;99.90
11934;DHT22;6026;48.784;9.198;2023-07-31T07:25:46;24.80;99.90
11934;DHT22;6026;48.784;9.198;2023-07-31T07:28:13;24.80;99.90
11934;DHT22;6026;48.784;9.198;2023-07-31T07:30:38;25.40;99.90
11934;DHT22;6026;48.784;9.198;2023-07-31T07:33:04;25.30;99.90
11934;DHT22;6026;48.784;9.198;2023-07-31T07:35:32;25.30;99.90
11934;DHT22;6026;48.784;9.198;2023-07-31T07:37:58;25.30;99.90
11934;DHT22;6026;48.784;9.198;2023-07-31T07:40:23;24.70;99.90
11934;DHT22;6026;48.784;9.198;2023-07-31T07:42:50;24.20;99.90
11934;DHT22;6026;48.784;9.198;2023-07-31T07:45:15;23.80;99.90
11934;DHT22;6026;48.784;9.198;2023-07-31T07:47:41;23.40;99.90
11934;DHT22;6026;48.784;9.198;2023-07-31T07:50:08;23.10;99.90
11934;DHT22;6026;48.784;9.198;2023-07-31T07:52:33;23.70;99.90
11934;DHT22;6026;48.784;9.198;2023-07-31T07:54:59;24.00;99.90
11934;DHT22;6026;48.784;9.198;2023-07-31T07:57:25;25.00;99.90
11934;DHT22;6026;48.784;9.198;2023-07-31T07:59:51;25.40;99.90
11934;DHT22;6026;48.784;9.198;2023-07-31T08:02:16;26.30;99.90
11934;DHT22;6026;48.784;9.198;2023-07-31T08:04:42;27.40;99.90
11934;DHT22;6026;48.784;9.198;2023-07-31T08:07:08;28.20;99.90
11934;DHT22;6026;48.784;9.198;2023-07-31T08:09:35;28.60;99.90
11934;DHT22;6026;48.784;9.198;2023-07-31T08:12:01;28.40;99.90
11934;DHT22;6026;48.784;9.198;2023-07-31T08:14:28;27.60;99.90
11934;DHT22;6026;48.784;9.198;2023-07-31T08:16:54;29.00;99.90
11934;DHT22;6026;48.784;9.198;2023-07-31T08:19:19;30.20;99.90
11934;DHT22;6026;48.784;9.198;2023-07-31T08:21:45;29.10;99.90
11934;DHT22;6026;48.784;9.198;2023-07-31T08:24:10;29.40;99.90
11934;DHT22;6026;48.784;9.198;2023-07-31T08:26:36;29.80;99.90
11934;DHT22;6026;48.784;9.198;2023-07-31T08:29:02;31.30;99.10
11934;DHT22;6026;48.784;9.198;2023-07-31T08:31:27;31.40;98.70
11934;DHT22;6026;48.784;9.198;2023-07-31T08:33:54;31.00;98.80
11934;DHT22;6026;48.784;9.198;2023-07-31T08:36:20;31.30;98.00
11934;DHT22;6026;48.784;9.198;2023-07-31T08:38:46;31.30;98.10
11934;DHT22;6026;48.784;9.198;2023-07-31T08:41:12;31.50;97.30
11934;DHT22;6026;48.784;9.198;2023-07-31T08:43:39;30.10;98.50
11934;DHT22;6026;48.784;9.198;2023-07-31T08:46:05;27.80;99.90
11934;DHT22;6026;48.784;9.198;2023-07-31T08:48:32;26.50;99.90
11934;DHT22;6026;48.784;9.198;2023-07-31T08:50:58;27.20;99.90
11934;DHT22;6026;48.784;9.198;2023-07-31T08:53:24;28.30;99.90
11934;DHT22;6026;48.784;9.198;2023-07-31T08:55:52;28.50;99.90
11934;DHT22;6026;48.784;9.198;2023-07-31T08:58:19;28.60;99.90
11934;DHT22;6026;48.784;9.198;2023-07-31T09:00:46;28.50;99.90
11934;DHT22;6026;48.784;9.198;2023-07-31T09:03:17;29.60;99.90
11934;DHT22;6026;48.784;9.198;2023-07-31T09:05:45;30.20;99.10
11934;DHT22;6026;48.784;9.198;2023-07-31T09:08:12;29.00;99.90
11934;DHT22;6026;48.784;9.198;2023-07-31T09:10:42;29.80;99.50
11934;DHT22;6026;48.784;9.198;2023-07-31T09:13:09;30.60;99.30
11934;DHT22;6026;48.784;9.198;2023-07-31T09:15:36;31.60;97.50
11934;DHT22;6026;48.784;9.198;2023-07-31T09:18:03;32.90;96.10
11934;DHT22;6026;48.784;9.198;2023-07-31T09:20:28;33.50;95.20
11934;DHT22;6026;48.784;9.198;2023-07-31T09:22:55;33.80;94.00
11934;DHT22;6026;48.784;9.198;2023-07-31T09:25:25;33.20;94.40
11934;DHT22;6026;48.784;9.198;2023-07-31T09:27:59;32.60;95.10
11934;DHT22;6026;48.784;9.198;2023-07-31T09:30:25;32.30;95.70
11934;DHT22;6026;48.784;9.198;2023-07-31T09:32:52;31.70;96.00
11934;DHT22;6026;48.784;9.198;2023-07-31T09:35:32;29.50;97.40
11934;DHT22;6026;48.784;9.198;2023-07-31T09:38:00;28.80;98.20
11934;DHT22;6026;48.784;9.198;2023-07-31T09:40:31;28.10;99.20
11934;DHT22;6026;48.784;9.198;2023-07-31T09:43:19;26.80;99.90
11934;DHT22;6026;48.784;9.198;2023-07-31T09:45:45;25.30;99.90
11934;DHT22;6026;48.784;9.198;2023-07-31T09:48:13;25.10;99.90
11934;DHT22;6026;48.784;9.198;2023-07-31T09:50:43;24.60;99.90
11934;DHT22;6026;48.784;9.198;2023-07-31T09:53:09;24.60;99.90
11934;DHT22;6026;48.784;9.198;2023-07-31T09:55:36;25.60;99.90
11934;DHT22;6026;48.784;9.198;2023-07-31T09:58:12;27.20;99.90
11934;DHT22;6026;48.784;9.198;2023-07-31T10:00:39;28.80;99.70
11934;DHT22;6026;48.784;9.198;2023-07-31T10:03:07;30.20;99.00
11934;DHT22;6026;48.784;9.198;2023-07-31T10:05:38;30.50;97.20
11934;DHT22;6026;48.784;9.198;2023-07-31T10:08:07;28.60;98.30
11934;DHT22;6026;48.784;9.198;2023-07-31T10:10:36;27.20;99.90
11934;DHT22;6026;48.784;9.198;2023-07-31T10:13:02;27.30;99.90
11934;DHT22;6026;48.784;9.198;2023-07-31T10:15:28;27.90;99.90
11934;DHT22;6026;48.784;9.198;2023-07-31T10:17:55;28.20;99.90
11934;DHT22;6026;48.784;9.198;2023-07-31T10:20:21;28.60;99.50
11934;DHT22;6026;48.784;9.198;2023-07-31T10:22:48;28.90;99.30
11934;DHT22;6026;48.784;9.198;2023-07-31T10:25:15;29.10;98.90
11934;DHT22;6026;48.784;9.198;2023-07-31T10:27:41;28.20;99.40
11934;DHT22;6026;48.784;9.198;2023-07-31T10:30:14;27.80;99.70
11934;DHT22;6026;48.784;9.198;2023-07-31T10:32:41;27.90;99.90
11934;DHT22;6026;48.784;9.198;2023-07-31T10:35:09;27.70;99.90
11934;DHT22;6026;48.784;9.198;2023-07-31T10:37:42;28.00;99.90
11934;DHT22;6026;48.784;9.198;2023-07-31T10:40:26;29.30;99.40
11934;DHT22;6026;48.784;9.198;2023-07-31T10:42:56;29.20;99.50
11934;DHT22;6026;48.784;9.198;2023-07-31T10:48:07;27.60;99.90
11934;DHT22;6026;48.784;9.198;2023-07-31T10:50:37;27.40;99.90
11934;DHT22;6026;48.784;9.198;2023-07-31T10:53:03;26.90;99.90
11934;DHT22;6026;48.784;9.198;2023-07-31T10:58:12;26.80;99.90
11934;DHT22;6026;48.784;9.198;2023-07-31T11:00:39;26.80;99.90
11934;DHT22;6026;48.784;9.198;2023-07-31T11:03:13;26.90;99.90
11934;DHT22;6026;48.784;9.198;2023-07-31T11:08:41;28.60;99.90
11934;DHT22;6026;48.784;9.198;2023-07-31T11:11:18;29.40;99.10
11934;DHT22;6026;48.784;9.198;2023-07-31T11:13:48;29.60;98.70
11934;DHT22;6026;48.784;9.198;2023-07-31T11:16:22;29.80;98.40
11934;DHT22;6026;48.784;9.198;2023-07-31T11:18:48;29.40;98.70
11934;DHT22;6026;48.784;9.198;2023-07-31T11:21:19;28.80;98.70
11934;DHT22;6026;48.784;9.198;2023-07-31T11:23:49;28.60;98.50
11934;DHT22;6026;48.784;9.198;2023-07-31T11:26:16;28.00;99.70
11934;DHT22;6026;48.784;9.198;2023-07-31T11:28:42;27.60;99.70
11934;DHT22;6026;48.784;9.198;2023-07-31T11:31:10;26.60;99.90
11934;DHT22;6026;48.784;9.198;2023-07-31T11:33:36;25.90;99.90
11934;DHT22;6026;48.784;9.198;2023-07-31T11:36:02;25.40;99.90
11934;DHT22;6026;48.784;9.198;2023-07-31T11:38:33;24.70;99.90
11934;DHT22;6026;48.784;9.198;2023-07-31T11:41:00;24.30;99.90
11934;DHT22;6026;48.784;9.198;2023-07-31T11:43:28;24.40;99.90
11934;DHT22;6026;48.784;9.198;2023-07-31T11:45:59;24.40;99.90
11934;DHT22;6026;48.784;9.198;2023-07-31T11:48:35;24.50;99.90
11934;DHT22;6026;48.784;9.198;2023-07-31T11:51:06;24.20;99.90
11934;DHT22;6026;48.784;9.198;2023-07-31T11:53:44;24.50;99.90
11934;DHT22;6026;48.784;9.198;2023-07-31T11:56:14;24.40;99.90
11934;DHT22;6026;48.784;9.198;2023-07-31T11:58:43;23.90;99.90
11934;DHT22;6026;48.784;9.198;2023-07-31T12:01:10;23.80;99.90
11934;DHT22;6026;48.784;9.198;2023-07-31T12:03:36;23.60;99.90
11934;DHT22;6026;48.784;9.198;2023-07-31T12:06:02;23.80;99.90
11934;DHT22;6026;48.784;9.198;2023-07-31T12:08:28;24.10;99.90
11934;DHT22;6026;48.784;9.198;2023-07-31T12:10:54;24.70;99.90
11934;DHT22;6026;48.784;9.198;2023-07-31T12:13:27;24.90;99.90
11934;DHT22;6026;48.784;9.198;2023-07-31T12:15:57;25.20;99.90
11934;DHT22;6026;48.784;9.198;2023-07-31T12:18:24;25.10;99.90
11934;DHT22;6026;48.784;9.198;2023-07-31T12:20:55;25.30;99.90
11934;DHT22;6026;48.784;9.198;2023-07-31T12:23:31;25.20;99.90
11934;DHT22;6026;48.784;9.198;2023-07-31T12:26:14;25.00;99.90
11934;DHT22;6026;48.784;9.198;2023-07-31T12:28:48;24.80;99.90
11934;DHT22;6026;48.784;9.198;2023-07-31T12:31:18;25.00;99.90
11934;DHT22;6026;48.784;9.198;2023-07-31T12:33:45;24.80;99.90
11934;DHT22;6026;48.784;9.198;2023-07-31T12:36:22;24.40;99.90
11934;DHT22;6026;48.784;9.198;2023-07-31T12:38:50;24.00;99.90
11934;DHT22;6026;48.784;9.198;2023-07-31T12:41:16;24.30;99.90
11934;DHT22;6026;48.784;9.198;2023-07-31T12:43:43;24.10;99.90
11934;DHT22;6026;48.784;9.198;2023-07-31T12:46:09;24.10;99.90
11934;DHT22;6026;48.784;9.198;2023-07-31T12:48:36;24.00;99.90
11934;DHT22;6026;48.784;9.198;2023-07-31T12:51:02;24.00;99.90
11934;DHT22;6026;48.784;9.198;2023-07-31T12:53:28;23.70;99.90
11934;DHT22;6026;48.784;9.198;2023-07-31T12:55:55;23.70;99.90
11934;DHT22;6026;48.784;9.198;2023-07-31T12:58:20;23.80;99.90
11934;DHT22;6026;48.784;9.198;2023-07-31T13:00:46;23.70;99.90
11934;DHT22;6026;48.784;9.198;2023-07-31T13:03:12;23.70;99.90
11934;DHT22;6026;48.784;9.198;2023-07-31T13:05:37;23.60;99.90
11934;DHT22;6026;48.784;9.198;2023-07-31T13:08:03;23.50;99.90
11934;DHT22;6026;48.784;9.198;2023-07-31T13:10:28;23.50;99.90
11934;DHT22;6026;48.784;9.198;2023-07-31T13:12:55;23.40;99.90
11934;DHT22;6026;48.784;9.198;2023-07-31T13:15:21;23.40;99.90
11934;DHT22;6026;48.784;9.198;2023-07-31T13:17:47;23.40;99.90
11934;DHT22;6026;48.784;9.198;2023-07-31T13:20:12;23.60;99.90
11934;DHT22;6026;48.784;9.198;2023-07-31T13:22:38;23.70;99.90
11934;DHT22;6026;48.784;9.198;2023-07-31T13:25:04;23.90;99.90
11934;DHT22;6026;48.784;9.198;2023-07-31T13:27:30;24.00;99.90
11934;DHT22;6026;48.784;9.198;2023-07-31T13:29:56;24.10;99.90
11934;DHT22;6026;48.784;9.198;2023-07-31T13:32:21;24.00;99.90
11934;DHT22;6026;48.784;9.198;2023-07-31T13:34:48;24.20;99.90
11934;DHT22;6026;48.784;9.198;2023-07-31T13:37:14;24.40;99.90
11934;DHT22;6026;48.784;9.198;2023-07-31T13:39:40;24.50;99.90
11934;DHT22;6026;48.784;9.198;2023-07-31T13:42:07;24.70;99.90
11934;DHT22;6026;48.784;9.198;2023-07-31T13:44:34;24.70;99.90
11934;DHT22;6026;48.784;9.198;2023-07-31T13:47:00;24.80;99.90
11934;DHT22;6026;48.784;9.198;2023-07-31T13:49:26;24.90;99.90
11934;DHT22;6026;48.784;9.198;2023-07-31T13:51:51;25.00;99.90
11934;DHT22;6026;48.784;9.198;2023-07-31T13:54:17;24.90;99.90
11934;DHT22;6026;48.784;9.198;2023-07-31T13:56:43;24.90;99.90
11934;DHT22;6026;48.784;9.198;2023-07-31T13:59:08;24.90;99.90
11934;DHT22;6026;48.784;9.198;2023-07-31T14:01:34;25.00;99.90
11934;DHT22;6026;48.784;9.198;2023-07-31T14:04:00;24.70;99.90
11934;DHT22;6026;48.784;9.198;2023-07-31T14:06:25;24.80;99.90
11934;DHT22;6026;48.784;9.198;2023-07-31T14:08:51;24.80;99.90
11934;DHT22;6026;48.784;9.198;2023-07-31T14:11:16;24.90;99.90
11934;DHT22;6026;48.784;9.198;2023-07-31T14:13:42;24.80;99.90
11934;DHT22;6026;48.784;9.198;2023-07-31T14:16:07;24.60;99.90
11934;DHT22;6026;48.784;9.198;2023-07-31T14:18:34;24.60;99.90
11934;DHT22;6026;48.784;9.198;2023-07-31T14:20:59;24.60;99.90
11934;DHT22;6026;48.784;9.198;2023-07-31T14:23:25;24.70;99.90
11934;DHT22;6026;48.784;9.198;2023-07-31T14:25:50;24.70;99.90
11934;DHT22;6026;48.784;9.198;2023-07-31T14:28:16;24.70;99.90
11934;DHT22;6026;48.784;9.198;2023-07-31T14:30:41;24.60;99.90
11934;DHT22;6026;48.784;9.198;2023-07-31T14:33:07;24.60;99.90
11934;DHT22;6026;48.784;9.198;2023-07-31T14:35:34;24.60;99.90
11934;DHT22;6026;48.784;9.198;2023-07-31T14:37:59;24.60;99.90
11934;DHT22;6026;48.784;9.198;2023-07-31T14:40:25;24.60;99.90
11934;DHT22;6026;48.784;9.198;2023-07-31T14:42:50;24.70;99.90
11934;DHT22;6026;48.784;9.198;2023-07-31T14:45:16;24.80;99.90
11934;DHT22;6026;48.784;9.198;2023-07-31T14:47:41;24.70;99.90
11934;DHT22;6026;48.784;9.198;2023-07-31T14:50:07;24.70;99.90
11934;DHT22;6026;48.784;9.198;2023-07-31T14:52:33;24.70;99.90
11934;DHT22;6026;48.784;9.198;2023-07-31T14:54:59;24.90;99.90
11934;DHT22;6026;48.784;9.198;2023-07-31T14:57:24;25.00;99.90
11934;DHT22;6026;48.784;9.198;2023-07-31T14:59:50;25.00;99.90
11934;DHT22;6026;48.784;9.198;2023-07-31T15:02:15;25.10;99.90
11934;DHT22;6026;48.784;9.198;2023-07-31T15:04:41;24.60;99.90
11934;DHT22;6026;48.784;9.198;2023-07-31T15:07:06;24.60;99.90
11934;DHT22;6026;48.784;9.198;2023-07-31T15:09:32;24.80;99.90
11934;DHT22;6026;48.784;9.198;2023-07-31T15:11:58;24.90;99.90
11934;DHT22;6026;48.784;9.198;2023-07-31T15:14:24;25.00;99.90
11934;DHT22;6026;48.784;9.198;2023-07-31T15:16:50;25.10;99.90
11934;DHT22;6026;48.784;9.198;2023-07-31T15:19:16;25.20;99.90
11934;DHT22;6026;48.784;9.198;2023-07-31T15:21:41;25.10;99.90
11934;DHT22;6026;48.784;9.198;2023-07-31T15:24:07;25.30;99.90
11934;DHT22;6026;48.784;9.198;2023-07-31T15:26:32;25.40;99.90
11934;DHT22;6026;48.784;9.198;2023-07-31T15:29:03;25.20;99.90
11934;DHT22;6026;48.784;9.198;2023-07-31T15:31:34;25.10;99.90
11934;DHT22;6026;48.784;9.198;2023-07-31T15:33:59;25.20;99.90
11934;DHT22;6026;48.784;9.198;2023-07-31T15:36:25;25.20;99.90
11934;DHT22;6026;48.784;9.198;2023-07-31T15:38:51;25.30;99.90
11934;DHT22;6026;48.784;9.198;2023-07-31T15:41:18;25.30;99.90
11934;DHT22;6026;48.784;9.198;2023-07-31T15:43:43;25.20;99.90
11934;DHT22;6026;48.784;9.198;2023-07-31T15:46:10;25.10;99.90
11934;DHT22;6026;48.784;9.198;2023-07-31T15:48:35;25.20;99.90
11934;DHT22;6026;48.784;9.198;2023-07-31T15:51:01;25.10;99.90
11934;DHT22;6026;48.784;9.198;2023-07-31T15:53:28;24.90;99.90
11934;DHT22;6026;48.784;9.198;2023-07-31T15:55:54;25.00;99.90